Pottersville, Missouri
Current Conditions -  °F | °C
As of 8:53 PM on Monday 22 Dec 2014 (Local Time) from KUNO Reporting Station
Overcast Overcast  
Wind Chill: 45°   Ceiling: 1700
Heat Index: 49°   Visibility: 10mi
Dew Point: 46°   Wind: 9mph
Humidity: 90%   Direction: 250°WSW
Pressure: 29.59"   Gusts: NA
Location:  36.7°N, 92.03°W
Report Text: KUNO 230253Z AUTO 25008KT 10SM FEW007 BKN017 OVC023 09/08 A2959 RMK AO2 SLP019 60007 T00940078 51018
Loading
Personal Weather Stations






























Interactive Weather Map New forecast layout! Learn more

10-Day Weather Forecast

Advertisements
Track Severe Weather on mobile